sensor_id;sensor_type;location;lat;lon;timestamp;P1;durP1;ratioP1;P2;durP2;ratioP2
22737;SDS011;11536;50.860;4.286;2023-04-08T00:01:19;8.95;;;3.67;;
22737;SDS011;11536;50.860;4.286;2023-04-08T00:03:45;9.73;;;3.13;;
22737;SDS011;11536;50.860;4.286;2023-04-08T00:06:10;8.88;;;2.88;;
22737;SDS011;11536;50.860;4.286;2023-04-08T00:08:36;16.48;;;3.13;;
22737;SDS011;11536;50.860;4.286;2023-04-08T00:11:01;13.18;;;3.53;;
22737;SDS011;11536;50.860;4.286;2023-04-08T00:13:27;8.80;;;2.83;;
22737;SDS011;11536;50.860;4.286;2023-04-08T00:15:53;12.52;;;3.70;;
22737;SDS011;11536;50.860;4.286;2023-04-08T00:18:18;8.90;;;3.58;;
22737;SDS011;11536;50.860;4.286;2023-04-08T00:20:44;11.90;;;3.90;;
22737;SDS011;11536;50.860;4.286;2023-04-08T00:23:10;13.13;;;3.50;;
22737;SDS011;11536;50.860;4.286;2023-04-08T00:25:36;9.77;;;3.35;;
22737;SDS011;11536;50.860;4.286;2023-04-08T00:28:01;10.93;;;3.47;;
22737;SDS011;11536;50.860;4.286;2023-04-08T00:30:27;12.90;;;3.40;;
22737;SDS011;11536;50.860;4.286;2023-04-08T00:32:54;9.40;;;3.45;;
22737;SDS011;11536;50.860;4.286;2023-04-08T00:35:19;10.23;;;3.85;;
22737;SDS011;11536;50.860;4.286;2023-04-08T00:37:45;11.70;;;3.75;;
22737;SDS011;11536;50.860;4.286;2023-04-08T00:40:11;12.02;;;3.30;;
22737;SDS011;11536;50.860;4.286;2023-04-08T00:42:37;11.23;;;3.65;;
22737;SDS011;11536;50.860;4.286;2023-04-08T00:45:03;8.65;;;3.30;;
22737;SDS011;11536;50.860;4.286;2023-04-08T00:47:29;11.35;;;3.65;;
22737;SDS011;11536;50.860;4.286;2023-04-08T00:49:55;8.63;;;3.97;;
22737;SDS011;11536;50.860;4.286;2023-04-08T00:52:21;12.40;;;3.83;;
22737;SDS011;11536;50.860;4.286;2023-04-08T00:54:46;12.90;;;3.47;;
22737;SDS011;11536;50.860;4.286;2023-04-08T00:57:12;11.82;;;3.97;;
22737;SDS011;11536;50.860;4.286;2023-04-08T00:59:37;13.73;;;3.88;;
22737;SDS011;11536;50.860;4.286;2023-04-08T01:02:11;11.98;;;4.18;;
22737;SDS011;11536;50.860;4.286;2023-04-08T01:07:26;14.15;;;4.22;;
22737;SDS011;11536;50.860;4.286;2023-04-08T01:09:58;12.45;;;4.13;;
22737;SDS011;11536;50.860;4.286;2023-04-08T01:12:32;10.88;;;3.88;;
22737;SDS011;11536;50.860;4.286;2023-04-08T01:15:05;10.65;;;3.95;;
22737;SDS011;11536;50.860;4.286;2023-04-08T01:17:33;14.73;;;5.00;;
22737;SDS011;11536;50.860;4.286;2023-04-08T01:20:00;12.13;;;4.18;;
22737;SDS011;11536;50.860;4.286;2023-04-08T01:22:32;12.45;;;4.10;;
22737;SDS011;11536;50.860;4.286;2023-04-08T01:25:26;14.63;;;4.20;;
22737;SDS011;11536;50.860;4.286;2023-04-08T01:28:04;12.70;;;3.75;;
22737;SDS011;11536;50.860;4.286;2023-04-08T01:30:34;10.95;;;4.32;;
22737;SDS011;11536;50.860;4.286;2023-04-08T01:33:02;15.40;;;4.15;;
22737;SDS011;11536;50.860;4.286;2023-04-08T01:35:30;13.23;;;4.70;;
22737;SDS011;11536;50.860;4.286;2023-04-08T01:37:56;16.45;;;4.90;;
22737;SDS011;11536;50.860;4.286;2023-04-08T01:40:23;16.33;;;4.82;;
22737;SDS011;11536;50.860;4.286;2023-04-08T01:42:49;12.10;;;4.00;;
22737;SDS011;11536;50.860;4.286;2023-04-08T01:45:19;12.50;;;4.40;;
22737;SDS011;11536;50.860;4.286;2023-04-08T01:47:46;14.77;;;4.97;;
22737;SDS011;11536;50.860;4.286;2023-04-08T01:50:13;14.48;;;4.80;;
22737;SDS011;11536;50.860;4.286;2023-04-08T01:52:41;17.80;;;4.82;;
22737;SDS011;11536;50.860;4.286;2023-04-08T01:55:09;10.93;;;4.55;;
22737;SDS011;11536;50.860;4.286;2023-04-08T01:57:35;11.55;;;4.88;;
22737;SDS011;11536;50.860;4.286;2023-04-08T02:00:04;11.98;;;4.53;;
22737;SDS011;11536;50.860;4.286;2023-04-08T02:02:35;15.55;;;5.03;;
22737;SDS011;11536;50.860;4.286;2023-04-08T02:05:01;13.95;;;5.05;;
22737;SDS011;11536;50.860;4.286;2023-04-08T02:07:27;15.43;;;4.13;;
22737;SDS011;11536;50.860;4.286;2023-04-08T02:09:53;15.07;;;4.70;;
22737;SDS011;11536;50.860;4.286;2023-04-08T02:12:20;17.10;;;6.00;;
22737;SDS011;11536;50.860;4.286;2023-04-08T02:14:46;17.08;;;5.90;;
22737;SDS011;11536;50.860;4.286;2023-04-08T02:20:12;17.25;;;5.90;;
22737;SDS011;11536;50.860;4.286;2023-04-08T02:25:44;16.45;;;5.00;;
22737;SDS011;11536;50.860;4.286;2023-04-08T02:28:11;16.05;;;5.53;;
22737;SDS011;11536;50.860;4.286;2023-04-08T02:30:40;14.65;;;6.18;;
22737;SDS011;11536;50.860;4.286;2023-04-08T02:33:08;16.67;;;5.90;;
22737;SDS011;11536;50.860;4.286;2023-04-08T02:35:35;14.40;;;6.03;;
22737;SDS011;11536;50.860;4.286;2023-04-08T02:38:02;13.82;;;6.07;;
22737;SDS011;11536;50.860;4.286;2023-04-08T02:40:31;14.07;;;5.68;;
22737;SDS011;11536;50.860;4.286;2023-04-08T02:42:57;16.60;;;6.53;;
22737;SDS011;11536;50.860;4.286;2023-04-08T02:45:26;15.02;;;5.97;;
22737;SDS011;11536;50.860;4.286;2023-04-08T02:47:53;15.95;;;6.70;;
22737;SDS011;11536;50.860;4.286;2023-04-08T02:50:19;19.83;;;7.60;;
22737;SDS011;11536;50.860;4.286;2023-04-08T02:52:45;16.95;;;7.22;;
22737;SDS011;11536;50.860;4.286;2023-04-08T02:55:10;16.45;;;6.97;;
22737;SDS011;11536;50.860;4.286;2023-04-08T02:57:37;16.67;;;7.68;;
22737;SDS011;11536;50.860;4.286;2023-04-08T03:00:04;20.70;;;8.27;;
22737;SDS011;11536;50.860;4.286;2023-04-08T03:02:31;16.88;;;6.78;;
22737;SDS011;11536;50.860;4.286;2023-04-08T03:04:57;17.83;;;7.68;;
22737;SDS011;11536;50.860;4.286;2023-04-08T03:07:22;20.45;;;8.00;;
22737;SDS011;11536;50.860;4.286;2023-04-08T03:09:48;19.95;;;8.23;;
22737;SDS011;11536;50.860;4.286;2023-04-08T03:12:13;20.05;;;7.88;;
22737;SDS011;11536;50.860;4.286;2023-04-08T03:14:39;21.92;;;7.10;;
22737;SDS011;11536;50.860;4.286;2023-04-08T03:17:05;18.35;;;7.60;;
22737;SDS011;11536;50.860;4.286;2023-04-08T03:19:30;17.67;;;7.72;;
22737;SDS011;11536;50.860;4.286;2023-04-08T03:21:56;15.73;;;6.97;;
22737;SDS011;11536;50.860;4.286;2023-04-08T03:24:21;17.73;;;7.40;;
22737;SDS011;11536;50.860;4.286;2023-04-08T03:26:47;14.95;;;6.22;;
22737;SDS011;11536;50.860;4.286;2023-04-08T03:29:12;15.88;;;7.40;;
22737;SDS011;11536;50.860;4.286;2023-04-08T03:31:38;18.35;;;7.22;;
22737;SDS011;11536;50.860;4.286;2023-04-08T03:34:04;17.40;;;7.43;;
22737;SDS011;11536;50.860;4.286;2023-04-08T03:36:29;21.02;;;7.63;;
22737;SDS011;11536;50.860;4.286;2023-04-08T03:38:55;17.67;;;7.43;;
22737;SDS011;11536;50.860;4.286;2023-04-08T03:41:20;22.80;;;7.50;;
22737;SDS011;11536;50.860;4.286;2023-04-08T03:43:46;19.35;;;7.18;;
22737;SDS011;11536;50.860;4.286;2023-04-08T03:46:11;19.27;;;7.32;;
22737;SDS011;11536;50.860;4.286;2023-04-08T03:48:37;19.52;;;7.90;;
22737;SDS011;11536;50.860;4.286;2023-04-08T03:51:03;19.60;;;8.02;;
22737;SDS011;11536;50.860;4.286;2023-04-08T03:53:28;17.95;;;7.70;;
22737;SDS011;11536;50.860;4.286;2023-04-08T03:55:55;19.33;;;7.55;;
22737;SDS011;11536;50.860;4.286;2023-04-08T03:58:21;20.77;;;7.82;;
22737;SDS011;11536;50.860;4.286;2023-04-08T04:00:46;19.95;;;8.40;;
22737;SDS011;11536;50.860;4.286;2023-04-08T04:03:12;17.25;;;7.55;;
22737;SDS011;11536;50.860;4.286;2023-04-08T04:05:38;21.77;;;8.93;;
22737;SDS011;11536;50.860;4.286;2023-04-08T04:08:04;17.45;;;8.15;;
22737;SDS011;11536;50.860;4.286;2023-04-08T04:10:30;22.80;;;8.40;;
22737;SDS011;11536;50.860;4.286;2023-04-08T04:12:56;19.10;;;7.13;;
22737;SDS011;11536;50.860;4.286;2023-04-08T04:15:22;20.95;;;7.72;;
22737;SDS011;11536;50.860;4.286;2023-04-08T04:17:47;15.45;;;7.47;;
22737;SDS011;11536;50.860;4.286;2023-04-08T04:20:16;19.42;;;7.80;;
22737;SDS011;11536;50.860;4.286;2023-04-08T04:22:42;25.60;;;8.32;;
22737;SDS011;11536;50.860;4.286;2023-04-08T04:25:08;20.70;;;8.05;;
22737;SDS011;11536;50.860;4.286;2023-04-08T04:27:34;20.65;;;7.32;;
22737;SDS011;11536;50.860;4.286;2023-04-08T04:30:03;21.10;;;7.82;;
22737;SDS011;11536;50.860;4.286;2023-04-08T04:32:31;21.95;;;8.40;;
22737;SDS011;11536;50.860;4.286;2023-04-08T04:34:56;18.65;;;7.78;;
22737;SDS011;11536;50.860;4.286;2023-04-08T04:37:22;21.60;;;8.82;;
22737;SDS011;11536;50.860;4.286;2023-04-08T04:39:47;20.70;;;7.80;;
22737;SDS011;11536;50.860;4.286;2023-04-08T04:42:13;19.23;;;7.82;;
22737;SDS011;11536;50.860;4.286;2023-04-08T04:44:39;17.73;;;7.38;;
22737;SDS011;11536;50.860;4.286;2023-04-08T04:47:05;23.85;;;8.60;;
22737;SDS011;11536;50.860;4.286;2023-04-08T04:49:30;18.52;;;7.63;;
22737;SDS011;11536;50.860;4.286;2023-04-08T04:51:56;21.52;;;8.68;;
22737;SDS011;11536;50.860;4.286;2023-04-08T04:54:21;22.23;;;8.82;;
22737;SDS011;11536;50.860;4.286;2023-04-08T04:56:47;20.35;;;8.30;;
22737;SDS011;11536;50.860;4.286;2023-04-08T04:59:12;17.02;;;7.55;;
22737;SDS011;11536;50.860;4.286;2023-04-08T05:01:38;17.73;;;7.35;;
22737;SDS011;11536;50.860;4.286;2023-04-08T05:04:05;20.27;;;8.25;;
22737;SDS011;11536;50.860;4.286;2023-04-08T05:06:31;23.92;;;8.25;;
22737;SDS011;11536;50.860;4.286;2023-04-08T05:08:57;21.70;;;8.43;;
22737;SDS011;11536;50.860;4.286;2023-04-08T05:11:22;19.13;;;8.15;;
22737;SDS011;11536;50.860;4.286;2023-04-08T05:13:48;19.60;;;7.95;;
22737;SDS011;11536;50.860;4.286;2023-04-08T05:16:14;18.73;;;7.95;;
22737;SDS011;11536;50.860;4.286;2023-04-08T05:18:40;21.73;;;8.30;;
22737;SDS011;11536;50.860;4.286;2023-04-08T05:21:06;20.35;;;8.52;;
22737;SDS011;11536;50.860;4.286;2023-04-08T05:23:31;22.10;;;8.50;;
22737;SDS011;11536;50.860;4.286;2023-04-08T05:25:58;21.52;;;8.60;;
22737;SDS011;11536;50.860;4.286;2023-04-08T05:28:24;23.30;;;8.38;;
22737;SDS011;11536;50.860;4.286;2023-04-08T05:30:50;20.40;;;9.20;;
22737;SDS011;11536;50.860;4.286;2023-04-08T05:33:17;23.08;;;8.45;;
22737;SDS011;11536;50.860;4.286;2023-04-08T05:35:43;21.17;;;8.18;;
22737;SDS011;11536;50.860;4.286;2023-04-08T05:38:09;19.08;;;7.65;;
22737;SDS011;11536;50.860;4.286;2023-04-08T05:40:34;19.00;;;7.88;;
22737;SDS011;11536;50.860;4.286;2023-04-08T05:43:00;21.95;;;8.80;;
22737;SDS011;11536;50.860;4.286;2023-04-08T05:45:26;21.17;;;8.05;;
22737;SDS011;11536;50.860;4.286;2023-04-08T05:47:52;18.02;;;7.32;;
22737;SDS011;11536;50.860;4.286;2023-04-08T05:50:18;20.63;;;8.73;;
22737;SDS011;11536;50.860;4.286;2023-04-08T05:52:44;22.48;;;8.65;;
22737;SDS011;11536;50.860;4.286;2023-04-08T05:55:10;20.15;;;8.25;;
22737;SDS011;11536;50.860;4.286;2023-04-08T05:57:36;21.52;;;8.15;;
22737;SDS011;11536;50.860;4.286;2023-04-08T06:00:03;20.90;;;8.30;;
22737;SDS011;11536;50.860;4.286;2023-04-08T06:02:33;20.75;;;8.07;;
22737;SDS011;11536;50.860;4.286;2023-04-08T06:05:00;24.98;;;8.43;;
22737;SDS011;11536;50.860;4.286;2023-04-08T06:07:26;17.98;;;8.43;;
22737;SDS011;11536;50.860;4.286;2023-04-08T06:09:51;22.95;;;7.60;;
22737;SDS011;11536;50.860;4.286;2023-04-08T06:12:17;20.77;;;8.32;;
22737;SDS011;11536;50.860;4.286;2023-04-08T06:14:42;20.83;;;8.43;;
22737;SDS011;11536;50.860;4.286;2023-04-08T06:17:08;23.40;;;8.93;;
22737;SDS011;11536;50.860;4.286;2023-04-08T06:19:34;19.38;;;8.52;;
22737;SDS011;11536;50.860;4.286;2023-04-08T06:21:59;20.70;;;8.32;;
22737;SDS011;11536;50.860;4.286;2023-04-08T06:24:25;20.77;;;7.68;;
22737;SDS011;11536;50.860;4.286;2023-04-08T06:26:51;21.23;;;8.55;;
22737;SDS011;11536;50.860;4.286;2023-04-08T06:29:17;23.90;;;8.77;;
22737;SDS011;11536;50.860;4.286;2023-04-08T06:31:43;17.85;;;8.43;;
22737;SDS011;11536;50.860;4.286;2023-04-08T06:34:09;15.23;;;7.70;;
22737;SDS011;11536;50.860;4.286;2023-04-08T06:36:35;23.88;;;9.27;;
22737;SDS011;11536;50.860;4.286;2023-04-08T06:39:00;19.33;;;7.85;;
22737;SDS011;11536;50.860;4.286;2023-04-08T06:41:26;20.52;;;7.80;;
22737;SDS011;11536;50.860;4.286;2023-04-08T06:43:52;21.10;;;7.88;;
22737;SDS011;11536;50.860;4.286;2023-04-08T06:46:17;21.88;;;8.27;;
22737;SDS011;11536;50.860;4.286;2023-04-08T06:48:43;19.17;;;8.13;;
22737;SDS011;11536;50.860;4.286;2023-04-08T06:51:08;19.13;;;7.57;;
22737;SDS011;11536;50.860;4.286;2023-04-08T06:53:35;21.85;;;8.07;;
22737;SDS011;11536;50.860;4.286;2023-04-08T06:56:00;18.42;;;7.80;;
22737;SDS011;11536;50.860;4.286;2023-04-08T06:58:26;19.38;;;7.18;;
22737;SDS011;11536;50.860;4.286;2023-04-08T07:00:55;19.63;;;7.30;;
22737;SDS011;11536;50.860;4.286;2023-04-08T07:03:21;16.15;;;7.65;;
22737;SDS011;11536;50.860;4.286;2023-04-08T07:05:47;16.55;;;6.90;;
22737;SDS011;11536;50.860;4.286;2023-04-08T07:08:13;17.38;;;7.53;;
22737;SDS011;11536;50.860;4.286;2023-04-08T07:10:38;16.35;;;7.20;;
22737;SDS011;11536;50.860;4.286;2023-04-08T07:13:04;21.08;;;8.02;;
22737;SDS011;11536;50.860;4.286;2023-04-08T07:15:30;18.23;;;7.28;;
22737;SDS011;11536;50.860;4.286;2023-04-08T07:17:55;20.20;;;7.95;;
22737;SDS011;11536;50.860;4.286;2023-04-08T07:20:21;25.92;;;9.32;;
22737;SDS011;11536;50.860;4.286;2023-04-08T07:22:47;18.10;;;7.07;;
22737;SDS011;11536;50.860;4.286;2023-04-08T07:25:13;20.05;;;8.77;;
22737;SDS011;11536;50.860;4.286;2023-04-08T07:27:39;20.20;;;8.10;;
22737;SDS011;11536;50.860;4.286;2023-04-08T07:30:05;23.13;;;8.40;;
22737;SDS011;11536;50.860;4.286;2023-04-08T07:32:32;19.85;;;8.20;;
22737;SDS011;11536;50.860;4.286;2023-04-08T07:34:58;16.60;;;6.53;;
22737;SDS011;11536;50.860;4.286;2023-04-08T07:37:25;14.63;;;6.53;;
22737;SDS011;11536;50.860;4.286;2023-04-08T07:39:53;15.63;;;7.80;;
22737;SDS011;11536;50.860;4.286;2023-04-08T07:42:19;20.83;;;7.65;;
22737;SDS011;11536;50.860;4.286;2023-04-08T07:44:45;18.35;;;7.78;;
22737;SDS011;11536;50.860;4.286;2023-04-08T07:47:10;17.05;;;7.32;;
22737;SDS011;11536;50.860;4.286;2023-04-08T07:49:37;19.65;;;6.57;;
22737;SDS011;11536;50.860;4.286;2023-04-08T07:52:03;15.15;;;6.53;;
22737;SDS011;11536;50.860;4.286;2023-04-08T07:54:32;14.52;;;6.15;;
22737;SDS011;11536;50.860;4.286;2023-04-08T07:56:58;16.00;;;6.30;;
22737;SDS011;11536;50.860;4.286;2023-04-08T07:59:25;13.38;;;6.10;;
22737;SDS011;11536;50.860;4.286;2023-04-08T08:01:51;13.23;;;5.93;;
22737;SDS011;11536;50.860;4.286;2023-04-08T08:04:17;13.18;;;6.50;;
22737;SDS011;11536;50.860;4.286;2023-04-08T08:06:42;14.10;;;5.78;;
22737;SDS011;11536;50.860;4.286;2023-04-08T08:09:08;12.75;;;5.50;;
22737;SDS011;11536;50.860;4.286;2023-04-08T08:11:33;11.75;;;5.68;;
22737;SDS011;11536;50.860;4.286;2023-04-08T08:13:59;12.35;;;5.75;;
22737;SDS011;11536;50.860;4.286;2023-04-08T08:16:28;13.90;;;6.65;;
22737;SDS011;11536;50.860;4.286;2023-04-08T08:18:55;11.10;;;5.80;;
22737;SDS011;11536;50.860;4.286;2023-04-08T08:21:24;12.38;;;6.85;;
22737;SDS011;11536;50.860;4.286;2023-04-08T08:23:51;12.98;;;6.47;;
22737;SDS011;11536;50.860;4.286;2023-04-08T08:26:17;13.75;;;7.15;;
22737;SDS011;11536;50.860;4.286;2023-04-08T08:28:42;16.50;;;7.60;;
22737;SDS011;11536;50.860;4.286;2023-04-08T08:31:08;14.15;;;6.88;;
22737;SDS011;11536;50.860;4.286;2023-04-08T08:33:34;14.57;;;7.30;;
22737;SDS011;11536;50.860;4.286;2023-04-08T08:36:00;18.55;;;7.22;;
22737;SDS011;11536;50.860;4.286;2023-04-08T08:38:25;13.68;;;7.05;;
22737;SDS011;11536;50.860;4.286;2023-04-08T08:40:56;12.75;;;7.13;;
22737;SDS011;11536;50.860;4.286;2023-04-08T08:43:24;17.13;;;7.70;;
22737;SDS011;11536;50.860;4.286;2023-04-08T08:45:51;18.23;;;7.65;;
22737;SDS011;11536;50.860;4.286;2023-04-08T08:48:17;14.32;;;7.47;;
22737;SDS011;11536;50.860;4.286;2023-04-08T08:50:43;15.48;;;7.72;;
22737;SDS011;11536;50.860;4.286;2023-04-08T08:53:09;19.13;;;8.35;;
22737;SDS011;11536;50.860;4.286;2023-04-08T08:55:35;16.17;;;7.45;;
22737;SDS011;11536;50.860;4.286;2023-04-08T08:58:03;15.25;;;8.20;;
22737;SDS011;11536;50.860;4.286;2023-04-08T09:00:32;17.20;;;8.35;;
22737;SDS011;11536;50.860;4.286;2023-04-08T09:03:18;16.55;;;7.70;;
22737;SDS011;11536;50.860;4.286;2023-04-08T09:05:46;17.45;;;8.27;;
22737;SDS011;11536;50.860;4.286;2023-04-08T09:08:39;20.20;;;8.77;;
22737;SDS011;11536;50.860;4.286;2023-04-08T09:11:09;19.65;;;8.57;;
22737;SDS011;11536;50.860;4.286;2023-04-08T09:13:37;15.60;;;7.65;;
22737;SDS011;11536;50.860;4.286;2023-04-08T09:16:03;18.23;;;8.70;;
22737;SDS011;11536;50.860;4.286;2023-04-08T09:18:31;18.15;;;9.05;;
22737;SDS011;11536;50.860;4.286;2023-04-08T09:21:06;21.15;;;9.15;;
22737;SDS011;11536;50.860;4.286;2023-04-08T09:26:14;16.02;;;8.38;;
22737;SDS011;11536;50.860;4.286;2023-04-08T09:28:40;16.38;;;7.80;;
22737;SDS011;11536;50.860;4.286;2023-04-08T09:31:20;20.50;;;8.38;;
22737;SDS011;11536;50.860;4.286;2023-04-08T09:33:48;15.50;;;8.02;;
22737;SDS011;11536;50.860;4.286;2023-04-08T09:36:15;18.05;;;9.27;;
22737;SDS011;11536;50.860;4.286;2023-04-08T09:38:41;16.13;;;8.98;;
22737;SDS011;11536;50.860;4.286;2023-04-08T09:41:07;18.42;;;9.23;;
22737;SDS011;11536;50.860;4.286;2023-04-08T09:43:41;19.23;;;8.90;;
22737;SDS011;11536;50.860;4.286;2023-04-08T09:46:32;18.17;;;8.95;;
22737;SDS011;11536;50.860;4.286;2023-04-08T09:49:11;19.13;;;8.95;;
22737;SDS011;11536;50.860;4.286;2023-04-08T09:57:30;21.70;;;10.45;;
22737;SDS011;11536;50.860;4.286;2023-04-08T10:05:54;17.35;;;9.10;;
22737;SDS011;11536;50.860;4.286;2023-04-08T10:08:23;23.83;;;10.50;;
22737;SDS011;11536;50.860;4.286;2023-04-08T10:10:54;23.52;;;10.13;;
22737;SDS011;11536;50.860;4.286;2023-04-08T10:13:21;24.20;;;10.20;;
22737;SDS011;11536;50.860;4.286;2023-04-08T10:15:47;21.52;;;9.27;;
22737;SDS011;11536;50.860;4.286;2023-04-08T10:20:42;18.10;;;9.65;;
22737;SDS011;11536;50.860;4.286;2023-04-08T10:23:14;19.90;;;10.07;;
22737;SDS011;11536;50.860;4.286;2023-04-08T10:25:42;22.77;;;10.60;;
22737;SDS011;11536;50.860;4.286;2023-04-08T10:30:42;20.23;;;10.98;;
22737;SDS011;11536;50.860;4.286;2023-04-08T10:33:09;21.60;;;10.65;;
22737;SDS011;11536;50.860;4.286;2023-04-08T10:35:38;20.95;;;10.30;;
22737;SDS011;11536;50.860;4.286;2023-04-08T10:38:06;17.85;;;9.75;;
22737;SDS011;11536;50.860;4.286;2023-04-08T10:40:39;17.55;;;9.98;;
22737;SDS011;11536;50.860;4.286;2023-04-08T10:43:06;23.92;;;10.27;;
22737;SDS011;11536;50.860;4.286;2023-04-08T10:45:33;22.27;;;11.00;;
22737;SDS011;11536;50.860;4.286;2023-04-08T10:51:03;18.52;;;10.45;;
22737;SDS011;11536;50.860;4.286;2023-04-08T10:53:29;19.58;;;10.00;;
22737;SDS011;11536;50.860;4.286;2023-04-08T10:56:04;19.10;;;9.43;;
22737;SDS011;11536;50.860;4.286;2023-04-08T10:58:35;23.83;;;10.13;;
22737;SDS011;11536;50.860;4.286;2023-04-08T11:01:04;20.60;;;10.63;;
22737;SDS011;11536;50.860;4.286;2023-04-08T11:03:33;17.33;;;9.27;;
22737;SDS011;11536;50.860;4.286;2023-04-08T11:06:00;21.50;;;11.10;;
22737;SDS011;11536;50.860;4.286;2023-04-08T11:08:30;22.02;;;11.45;;
22737;SDS011;11536;50.860;4.286;2023-04-08T11:11:01;21.25;;;10.73;;
22737;SDS011;11536;50.860;4.286;2023-04-08T11:13:28;21.23;;;10.10;;
22737;SDS011;11536;50.860;4.286;2023-04-08T11:15:56;20.75;;;10.98;;
22737;SDS011;11536;50.860;4.286;2023-04-08T11:18:23;20.73;;;10.27;;
22737;SDS011;11536;50.860;4.286;2023-04-08T11:20:50;21.98;;;10.95;;
22737;SDS011;11536;50.860;4.286;2023-04-08T11:23:17;21.73;;;10.90;;
22737;SDS011;11536;50.860;4.286;2023-04-08T11:25:43;20.75;;;10.50;;
22737;SDS011;11536;50.860;4.286;2023-04-08T11:28:11;19.92;;;9.35;;
22737;SDS011;11536;50.860;4.286;2023-04-08T11:30:38;20.30;;;8.82;;
22737;SDS011;11536;50.860;4.286;2023-04-08T11:33:05;17.27;;;8.82;;
22737;SDS011;11536;50.860;4.286;2023-04-08T11:35:31;17.23;;;8.02;;
22737;SDS011;11536;50.860;4.286;2023-04-08T11:37:57;16.88;;;9.30;;
22737;SDS011;11536;50.860;4.286;2023-04-08T11:40:24;19.23;;;9.45;;
22737;SDS011;11536;50.860;4.286;2023-04-08T11:42:50;21.83;;;10.05;;
22737;SDS011;11536;50.860;4.286;2023-04-08T11:45:17;19.25;;;9.27;;
22737;SDS011;11536;50.860;4.286;2023-04-08T11:47:45;18.23;;;8.65;;
22737;SDS011;11536;50.860;4.286;2023-04-08T11:50:11;20.67;;;9.75;;
22737;SDS011;11536;50.860;4.286;2023-04-08T11:52:46;24.05;;;9.90;;
22737;SDS011;11536;50.860;4.286;2023-04-08T11:57:48;18.85;;;9.95;;
22737;SDS011;11536;50.860;4.286;2023-04-08T12:00:14;19.10;;;9.65;;
22737;SDS011;11536;50.860;4.286;2023-04-08T12:02:39;21.48;;;10.57;;
22737;SDS011;11536;50.860;4.286;2023-04-08T12:05:05;22.48;;;10.85;;
22737;SDS011;11536;50.860;4.286;2023-04-08T12:07:31;21.40;;;10.32;;
22737;SDS011;11536;50.860;4.286;2023-04-08T12:09:57;20.05;;;9.63;;
22737;SDS011;11536;50.860;4.286;2023-04-08T12:12:23;18.75;;;9.07;;
22737;SDS011;11536;50.860;4.286;2023-04-08T12:14:48;21.98;;;10.30;;
22737;SDS011;11536;50.860;4.286;2023-04-08T12:17:14;16.65;;;8.45;;
22737;SDS011;11536;50.860;4.286;2023-04-08T12:19:40;15.35;;;8.38;;
22737;SDS011;11536;50.860;4.286;2023-04-08T12:22:05;19.33;;;8.55;;
22737;SDS011;11536;50.860;4.286;2023-04-08T12:24:31;16.50;;;8.90;;
22737;SDS011;11536;50.860;4.286;2023-04-08T12:26:57;19.45;;;9.85;;
22737;SDS011;11536;50.860;4.286;2023-04-08T12:29:22;21.67;;;9.57;;
22737;SDS011;11536;50.860;4.286;2023-04-08T12:31:48;17.92;;;9.25;;
22737;SDS011;11536;50.860;4.286;2023-04-08T12:34:14;19.42;;;10.32;;
22737;SDS011;11536;50.860;4.286;2023-04-08T12:36:40;21.40;;;8.73;;
22737;SDS011;11536;50.860;4.286;2023-04-08T12:39:06;18.95;;;9.18;;
22737;SDS011;11536;50.860;4.286;2023-04-08T12:41:32;17.80;;;8.88;;
22737;SDS011;11536;50.860;4.286;2023-04-08T12:43:58;19.70;;;9.63;;
22737;SDS011;11536;50.860;4.286;2023-04-08T12:46:24;16.75;;;8.73;;
22737;SDS011;11536;50.860;4.286;2023-04-08T12:48:50;19.38;;;8.80;;
22737;SDS011;11536;50.860;4.286;2023-04-08T12:51:15;18.95;;;9.07;;
22737;SDS011;11536;50.860;4.286;2023-04-08T12:53:41;20.83;;;9.57;;
22737;SDS011;11536;50.860;4.286;2023-04-08T12:56:06;17.10;;;8.38;;
22737;SDS011;11536;50.860;4.286;2023-04-08T12:58:32;17.02;;;8.90;;
22737;SDS011;11536;50.860;4.286;2023-04-08T13:00:58;17.00;;;8.30;;
22737;SDS011;11536;50.860;4.286;2023-04-08T13:03:23;17.15;;;8.63;;
22737;SDS011;11536;50.860;4.286;2023-04-08T13:05:49;17.05;;;8.77;;
22737;SDS011;11536;50.860;4.286;2023-04-08T13:08:15;17.35;;;8.25;;
22737;SDS011;11536;50.860;4.286;2023-04-08T13:10:41;19.55;;;8.75;;
22737;SDS011;11536;50.860;4.286;2023-04-08T13:13:07;15.02;;;8.20;;
22737;SDS011;11536;50.860;4.286;2023-04-08T13:15:33;14.00;;;7.47;;
22737;SDS011;11536;50.860;4.286;2023-04-08T13:17:58;15.63;;;7.93;;
22737;SDS011;11536;50.860;4.286;2023-04-08T13:20:24;15.25;;;7.70;;
22737;SDS011;11536;50.860;4.286;2023-04-08T13:22:51;15.07;;;7.43;;
22737;SDS011;11536;50.860;4.286;2023-04-08T13:25:17;13.10;;;6.88;;
22737;SDS011;11536;50.860;4.286;2023-04-08T13:27:42;17.60;;;7.63;;
22737;SDS011;11536;50.860;4.286;2023-04-08T13:30:08;12.35;;;6.75;;
22737;SDS011;11536;50.860;4.286;2023-04-08T13:32:34;11.38;;;6.13;;
22737;SDS011;11536;50.860;4.286;2023-04-08T13:35:00;13.07;;;6.43;;
22737;SDS011;11536;50.860;4.286;2023-04-08T13:37:26;12.10;;;6.45;;
22737;SDS011;11536;50.860;4.286;2023-04-08T13:39:52;12.13;;;5.78;;
22737;SDS011;11536;50.860;4.286;2023-04-08T13:42:18;12.30;;;6.13;;
22737;SDS011;11536;50.860;4.286;2023-04-08T13:44:44;16.45;;;7.25;;
22737;SDS011;11536;50.860;4.286;2023-04-08T13:47:09;14.27;;;7.55;;
22737;SDS011;11536;50.860;4.286;2023-04-08T13:49:35;17.33;;;7.47;;
22737;SDS011;11536;50.860;4.286;2023-04-08T13:52:01;16.50;;;8.15;;
22737;SDS011;11536;50.860;4.286;2023-04-08T13:54:26;18.77;;;8.52;;
22737;SDS011;11536;50.860;4.286;2023-04-08T13:56:52;16.05;;;8.52;;
22737;SDS011;11536;50.860;4.286;2023-04-08T13:59:18;15.82;;;8.25;;
22737;SDS011;11536;50.860;4.286;2023-04-08T14:01:43;19.65;;;9.02;;
22737;SDS011;11536;50.860;4.286;2023-04-08T14:04:09;16.20;;;8.90;;
22737;SDS011;11536;50.860;4.286;2023-04-08T14:06:34;20.92;;;9.85;;
22737;SDS011;11536;50.860;4.286;2023-04-08T14:09:00;16.67;;;8.30;;
22737;SDS011;11536;50.860;4.286;2023-04-08T14:11:26;15.25;;;8.50;;
22737;SDS011;11536;50.860;4.286;2023-04-08T14:13:51;16.33;;;8.70;;
22737;SDS011;11536;50.860;4.286;2023-04-08T14:16:17;16.02;;;8.20;;
22737;SDS011;11536;50.860;4.286;2023-04-08T14:18:43;15.13;;;8.05;;
22737;SDS011;11536;50.860;4.286;2023-04-08T14:21:09;17.60;;;7.97;;
22737;SDS011;11536;50.860;4.286;2023-04-08T14:23:36;14.68;;;8.27;;
22737;SDS011;11536;50.860;4.286;2023-04-08T14:26:02;19.23;;;9.05;;
22737;SDS011;11536;50.860;4.286;2023-04-08T14:28:28;18.48;;;9.35;;
22737;SDS011;11536;50.860;4.286;2023-04-08T14:30:53;16.33;;;8.65;;
22737;SDS011;11536;50.860;4.286;2023-04-08T14:33:19;17.70;;;9.23;;
22737;SDS011;11536;50.860;4.286;2023-04-08T14:35:45;15.75;;;8.65;;
22737;SDS011;11536;50.860;4.286;2023-04-08T14:38:11;16.23;;;8.93;;
22737;SDS011;11536;50.860;4.286;2023-04-08T14:40:37;18.35;;;9.10;;
22737;SDS011;11536;50.860;4.286;2023-04-08T14:43:02;19.15;;;8.95;;
22737;SDS011;11536;50.860;4.286;2023-04-08T14:45:28;19.17;;;9.60;;
22737;SDS011;11536;50.860;4.286;2023-04-08T14:47:54;18.30;;;8.88;;
22737;SDS011;11536;50.860;4.286;2023-04-08T14:50:19;18.30;;;9.18;;
22737;SDS011;11536;50.860;4.286;2023-04-08T14:52:46;16.38;;;9.05;;
22737;SDS011;11536;50.860;4.286;2023-04-08T14:55:13;18.08;;;8.30;;
22737;SDS011;11536;50.860;4.286;2023-04-08T14:57:38;17.35;;;8.68;;
22737;SDS011;11536;50.860;4.286;2023-04-08T15:00:04;18.08;;;9.30;;
22737;SDS011;11536;50.860;4.286;2023-04-08T15:02:31;19.08;;;9.65;;
22737;SDS011;11536;50.860;4.286;2023-04-08T15:04:57;18.10;;;9.55;;